Aérodrome :
LOGIN :

S'inscrire | Disclaimer

   EN    FR    IT 

 










Légende :    VFR   VFR Marginal   IFR   IFR Intensif   IFR Très Intensif
Visi : 
Plafond : 
>= 8 km
>= 3000ft
5 à 8 km
1000 à 3000 ft
1500m à 5 km
500 à 1000 ft
800 à 1500m
200 à 500 ft
< 800m
< 200 ft
Symboles :   Orages  Brouillard  Fortes neiges  Fortes précipitations  Vent > 20 kt
SIGMETs :   Divers  Orages  Givrage  Turbulence  Onde Orograph.  Cendres Volcan.







- Altitude de l'aérodrome : 1521 ft
- Code IATA : NCY
- Voir les cartes d'approche


LFLP - Annecy

DERNIER METAR :
  • 210430Z AUTO VRB02KT 8000 FEW064 OVC100 10/10 Q1014 TEMPO 2000 BR OVC007

METARs EXPIRÉS :
  • 210400Z AUTO VRB02KT 9000 SCT062 OVC100 11/10 Q1014 TEMPO 2000 BR OVC007
  • 210330Z AUTO 00000KT 8000 BKN040 OVC046 11/10 Q1013 TEMPO 2000 BR OVC007
  • 210300Z AUTO 00000KT 9000 OVC040 11/10 Q1013 TEMPO 2000 BR OVC007
  • 210230Z AUTO VRB01KT 9999 -DZ SCT031 OVC039 11/10 Q1013
  • 210200Z AUTO VRB02KT 9999 FEW015 OVC030 11/10 Q1013

TAF TAF LFLP
Valide du 21 à 03h jusqu'au 22 à 03h UTC


210200Z 2103/2203 VRB01KT 8000 SCT017 BKN030
PROB40
TEMPO 2103/2107 2000 BR OVC007
BECMG 2108/2110 34011KT
PROB40
TEMPO 2109/2115 FEW055TCU
Pas de NOTAMs connus pour ce terrain.
1 SIGMET publié pour la FIR Marseille (LFMM) :
 
Onde orographique forte
LFMM SIGMET 1 VALID 210400/210800 LFPW
LFMM MARSEILLE FIR/UIR SEV MTW FCST E OF E00900 SFC/FL100 STNR NC=



MET'MAP, la Météo Aéronautique d'un coup d'oeil ! - Copyright ORBIFLY Décembre 2007 - Disclaimer

ORBIFLY MET'MAP TEAM :

Programmation & Développement : Alexandra Zaïnal
Conception & Développement : Baudouin d'Aumeries
Co-Programmation & Développement : Marc-Olivier Méhu
Soutien technique & logistique : Manuel Goepfert

Contact : metmap@orbifly.com




SOURCES & CREDITS :

   NOAA